Time;durP1;ratioP1;P1;durP2;ratioP2;P2;SDS_P1;SDS_P2;PMS_P1;PMS_P2;Temp;Humidity;BMP_temperature;BMP_pressure;BME280_temperature;BME280_humidity;BME280_pressure;Samples;Min_cycle;Max_cycle;Signal;HPM_P1;HPM_P2
2023/08/28 00:02:19;;;;;;;2.00;1.40;;;18.20;69.60;;;;;;4896870;29;20041;-76
2023/08/28 00:04:45;;;;;;;1.83;1.60;;;18.20;69.60;;;;;;4900057;29;20482;-76
2023/08/28 00:07:10;;;;;;;1.92;1.50;;;18.20;69.70;;;;;;4916158;29;20044;-76
2023/08/28 00:09:36;;;;;;;1.38;1.27;;;18.20;69.60;;;;;;4900404;29;20120;-76
2023/08/28 00:12:02;;;;;;;2.25;1.45;;;18.10;69.60;;;;;;4901046;29;20084;-76
2023/08/28 00:14:28;;;;;;;1.60;1.50;;;18.10;69.60;;;;;;4916070;29;20441;-76
2023/08/28 00:16:54;;;;;;;1.60;1.50;;;18.10;69.60;;;;;;4899991;29;20052;-76
2023/08/28 00:19:20;;;;;;;1.80;1.60;;;18.10;69.70;;;;;;4899973;29;20043;-76
2023/08/28 00:21:47;;;;;;;1.52;1.40;;;18.10;69.70;;;;;;4900297;29;20040;-77
2023/08/28 00:24:12;;;;;;;2.05;1.63;;;18.10;69.70;;;;;;4900110;29;20415;-76
2023/08/28 00:26:38;;;;;;;1.88;1.60;;;18.00;69.70;;;;;;4899902;29;20052;-77
2023/08/28 00:29:04;;;;;;;1.52;1.42;;;18.00;69.70;;;;;;4899933;29;20044;-76
2023/08/28 00:31:30;;;;;;;1.48;1.35;;;18.00;69.70;;;;;;4900240;29;20196;-76
2023/08/28 00:34:00;;;;;;;1.50;1.40;;;18.00;69.70;;;;;;4900138;29;20041;-76
2023/08/28 00:36:27;;;;;;;1.50;1.40;;;18.00;69.70;;;;;;4900101;29;20040;-76
2023/08/28 00:38:53;;;;;;;1.90;1.67;;;18.00;69.70;;;;;;4915529;29;20043;-76
2023/08/28 00:41:19;;;;;;;2.53;1.50;;;18.00;69.80;;;;;;4915420;29;20404;-77
2023/08/28 00:43:44;;;;;;;1.75;1.50;;;18.00;69.80;;;;;;4899667;29;20470;-76
2023/08/28 00:46:10;;;;;;;1.70;1.50;;;17.90;69.70;;;;;;4899886;29;20085;-76
2023/08/28 00:48:36;;;;;;;1.55;1.45;;;17.90;69.70;;;;;;4899692;29;20064;-76
2023/08/28 00:51:03;;;;;;;1.60;1.50;;;17.90;69.80;;;;;;4899497;29;20516;-75
2023/08/28 00:53:30;;;;;;;2.13;1.70;;;17.90;69.80;;;;;;4899451;29;20037;-77
2023/08/28 00:55:56;;;;;;;1.60;1.45;;;17.90;69.80;;;;;;4915159;29;20562;-76
2023/08/28 00:58:22;;;;;;;1.52;1.42;;;17.90;69.80;;;;;;4899736;29;20127;-76
2023/08/28 01:00:47;;;;;;;1.63;1.52;;;17.90;69.90;;;;;;4915359;29;20123;-76
2023/08/28 01:03:13;;;;;;;1.23;1.13;;;17.80;69.80;;;;;;4899492;29;20115;-76
2023/08/28 01:05:45;;;;;;;2.17;1.65;;;17.80;69.80;;;;;;4883749;29;20048;-76
2023/08/28 01:08:36;;;;;;;1.70;1.60;;;17.80;69.80;;;;;;4899690;29;20024;-76
2023/08/28 01:11:31;;;;;;;1.80;1.60;;;17.80;70.00;;;;;;4899164;29;20084;-76
2023/08/28 01:14:46;;;;;;;1.88;1.40;;;17.80;69.90;;;;;;4899503;29;20470;-77
2023/08/28 01:17:14;;;;;;;2.10;1.70;;;17.80;69.90;;;;;;4845886;29;20054;-76
2023/08/28 01:19:43;;;;;;;1.75;1.50;;;17.80;69.90;;;;;;4845464;29;20072;-76
2023/08/28 01:22:31;;;;;;;1.48;1.30;;;17.70;69.80;;;;;;4889986;29;20053;-76
2023/08/28 01:25:08;;;;;;;1.90;1.52;;;17.80;70.00;;;;;;4900237;29;20040;-76
2023/08/28 01:27:34;;;;;;;1.42;1.33;;;17.70;69.90;;;;;;4899527;29;20029;-76
2023/08/28 01:30:06;;;;;;;1.50;1.40;;;17.70;69.90;;;;;;4899022;29;20549;-76
2023/08/28 01:32:32;;;;;;;2.33;1.70;;;17.70;70.00;;;;;;4898767;29;20478;-76
2023/08/28 01:34:59;;;;;;;1.38;1.27;;;17.70;70.00;;;;;;4898753;29;20036;-76
2023/08/28 01:37:29;;;;;;;1.40;1.30;;;17.70;70.00;;;;;;4898369;29;20048;-76
2023/08/28 01:40:00;;;;;;;1.73;1.50;;;17.60;70.00;;;;;;4900611;29;20051;-77
2023/08/28 01:42:27;;;;;;;2.20;1.48;;;17.60;70.00;;;;;;4898693;29;20040;-76
2023/08/28 01:44:54;;;;;;;1.50;1.40;;;17.60;70.00;;;;;;4883071;29;20040;-76
2023/08/28 01:47:22;;;;;;;1.40;1.30;;;17.60;70.00;;;;;;4900086;29;20044;-76
2023/08/28 01:49:51;;;;;;;1.52;1.40;;;17.60;70.00;;;;;;4898566;29;20438;-75
2023/08/28 01:52:17;;;;;;;2.42;1.40;;;17.60;70.00;;;;;;4898925;29;20063;-76
2023/08/28 01:54:43;;;;;;;1.75;1.50;;;17.50;70.00;;;;;;4914306;29;20450;-76
2023/08/28 01:57:09;;;;;;;1.50;1.40;;;17.60;70.10;;;;;;4914042;29;20127;-76
2023/08/28 01:59:35;;;;;;;2.20;1.60;;;17.50;70.70;;;;;;4899446;29;20431;-76
2023/08/28 02:02:01;;;;;;;1.90;1.50;;;17.50;70.00;;;;;;4882714;29;20100;-76
2023/08/28 02:04:27;;;;;;;1.55;1.40;;;17.50;70.00;;;;;;4899125;29;20379;-77
2023/08/28 02:06:53;;;;;;;1.60;1.50;;;17.50;70.10;;;;;;4883455;29;20068;-77
2023/08/28 02:09:19;;;;;;;1.30;1.20;;;17.50;70.10;;;;;;4898456;29;20056;-76
2023/08/28 02:11:45;;;;;;;1.60;1.50;;;17.50;70.10;;;;;;4898174;29;20037;-76
2023/08/28 02:14:11;;;;;;;1.70;1.50;;;17.50;70.10;;;;;;4882618;29;20058;-76
2023/08/28 02:16:39;;;;;;;1.73;1.60;;;17.40;70.10;;;;;;4913586;29;20482;-76
2023/08/28 02:19:05;;;;;;;2.03;1.80;;;17.40;70.10;;;;;;4898031;29;20028;-76
2023/08/28 02:21:31;;;;;;;1.50;1.40;;;17.40;70.10;;;;;;4898587;29;20040;-77
2023/08/28 02:23:57;;;;;;;1.83;1.73;;;17.40;70.10;;;;;;4867183;29;20044;-76
2023/08/28 02:26:24;;;;;;;2.50;1.55;;;17.30;70.10;;;;;;4897586;29;20061;-76
2023/08/28 02:28:50;;;;;;;1.60;1.50;;;17.30;70.10;;;;;;4898175;29;20051;-76
2023/08/28 02:31:17;;;;;;;1.65;1.55;;;17.30;70.10;;;;;;4883137;29;20406;-76
2023/08/28 02:33:44;;;;;;;1.67;1.58;;;17.30;70.10;;;;;;4897568;29;20032;-76
2023/08/28 02:36:10;;;;;;;1.70;1.58;;;17.30;70.10;;;;;;4897820;29;20064;-76
2023/08/28 02:38:36;;;;;;;2.22;1.67;;;17.30;70.20;;;;;;4897825;29;20029;-76
2023/08/28 02:41:07;;;;;;;1.75;1.50;;;17.30;70.20;;;;;;4898008;29;20035;-76
2023/08/28 02:43:34;;;;;;;2.17;1.58;;;17.30;70.20;;;;;;4913658;29;20047;-76
2023/08/28 02:46:01;;;;;;;1.88;1.70;;;17.20;70.20;;;;;;4899449;29;20047;-76
2023/08/28 02:48:27;;;;;;;2.08;1.80;;;17.20;70.20;;;;;;4882330;29;20063;-76
2023/08/28 02:50:55;;;;;;;1.70;1.60;;;17.20;70.10;;;;;;4897261;29;20033;-76
2023/08/28 02:53:21;;;;;;;1.77;1.50;;;17.20;70.20;;;;;;4882291;29;20056;-76
2023/08/28 02:56:23;;;;;;;1.73;1.60;;;17.20;70.20;;;;;;4897501;29;20486;-77
2023/08/28 02:58:50;;;;;;;1.60;1.50;;;17.20;70.20;;;;;;4897542;29;20036;-76
2023/08/28 03:01:17;;;;;;;1.80;1.70;;;17.10;70.10;;;;;;4897086;29;20394;-76
2023/08/28 03:03:43;;;;;;;2.10;1.75;;;17.10;70.10;;;;;;4898185;29;20114;-76
2023/08/28 03:06:09;;;;;;;1.60;1.50;;;17.10;70.20;;;;;;4882682;29;20124;-76
2023/08/28 03:08:35;;;;;;;1.67;1.58;;;17.10;70.20;;;;;;4913327;29;20077;-76
2023/08/28 03:11:01;;;;;;;1.85;1.70;;;17.10;70.20;;;;;;4897429;29;20041;-76
2023/08/28 03:13:26;;;;;;;1.98;1.67;;;17.00;70.10;;;;;;4897368;29;20157;-76
2023/08/28 03:15:52;;;;;;;1.73;1.50;;;17.00;70.20;;;;;;4898185;29;20060;-76
2023/08/28 03:18:18;;;;;;;1.70;1.60;;;17.00;70.20;;;;;;4897328;29;20398;-76
2023/08/28 03:20:44;;;;;;;1.73;1.60;;;17.00;70.20;;;;;;4897798;29;20044;-76
2023/08/28 03:23:10;;;;;;;2.17;1.83;;;17.00;70.20;;;;;;4897451;29;20045;-76
2023/08/28 03:25:36;;;;;;;1.90;1.77;;;17.00;70.20;;;;;;4897867;29;20535;-76
2023/08/28 03:28:06;;;;;;;1.70;1.60;;;17.00;70.30;;;;;;4913082;29;20059;-76
2023/08/28 03:30:32;;;;;;;2.30;1.73;;;16.90;70.20;;;;;;4913290;29;20036;-78
2023/08/28 03:33:01;;;;;;;2.50;1.83;;;16.90;70.20;;;;;;4913407;29;20041;-76
2023/08/28 03:35:26;;;;;;;1.90;1.50;;;16.90;70.30;;;;;;4897150;29;20037;-76
2023/08/28 03:37:52;;;;;;;2.22;1.75;;;16.90;70.30;;;;;;4897144;29;20037;-76
2023/08/28 03:40:18;;;;;;;1.88;1.70;;;16.90;70.30;;;;;;4900186;29;20442;-77
2023/08/28 03:42:43;;;;;;;2.13;1.92;;;16.90;70.30;;;;;;4901348;29;20041;-76
2023/08/28 03:45:09;;;;;;;2.03;1.80;;;16.90;70.40;;;;;;4901620;29;20518;-77
2023/08/28 03:47:35;;;;;;;1.75;1.52;;;16.80;70.30;;;;;;4901213;29;20539;-77
2023/08/28 03:50:01;;;;;;;1.50;1.40;;;16.80;70.30;;;;;;4885263;29;20493;-76
2023/08/28 03:52:27;;;;;;;1.70;1.52;;;16.80;70.40;;;;;;4901923;29;20044;-76
2023/08/28 03:54:52;;;;;;;1.83;1.58;;;16.80;70.30;;;;;;4900656;29;20073;-76
2023/08/28 03:57:18;;;;;;;1.75;1.63;;;16.80;70.30;;;;;;4916308;29;20037;-76
2023/08/28 03:59:44;;;;;;;2.03;1.80;;;16.80;70.30;;;;;;4916305;29;20040;-76
2023/08/28 04:02:10;;;;;;;1.90;1.70;;;16.80;70.30;;;;;;4885220;29;20189;-76
2023/08/28 04:04:35;;;;;;;1.75;1.65;;;16.80;70.40;;;;;;4900554;29;20088;-76
2023/08/28 04:07:02;;;;;;;2.22;1.55;;;16.80;70.40;;;;;;4901114;29;20493;-76
2023/08/28 04:09:29;;;;;;;1.88;1.73;;;16.70;70.30;;;;;;4885114;29;20029;-76
2023/08/28 04:11:55;;;;;;;1.83;1.65;;;16.70;70.40;;;;;;4900402;29;20044;-77
2023/08/28 04:14:22;;;;;;;1.90;1.58;;;16.70;70.40;;;;;;4900301;29;20127;-76
2023/08/28 04:16:53;;;;;;;1.85;1.65;;;16.70;70.40;;;;;;4884930;29;20046;-76
2023/08/28 04:19:19;;;;;;;2.75;2.00;;;16.70;70.40;;;;;;4901117;29;20043;-76
2023/08/28 04:21:44;;;;;;;1.75;1.60;;;16.70;71.10;;;;;;4916447;29;20048;-76
2023/08/28 04:24:10;;;;;;;2.00;1.83;;;16.60;70.40;;;;;;4900133;29;20441;-76
2023/08/28 04:26:36;;;;;;;1.70;1.58;;;16.60;70.40;;;;;;4916640;29;20036;-76
2023/08/28 04:29:02;;;;;;;2.78;2.00;;;16.70;70.50;;;;;;4900918;29;20029;-76
2023/08/28 04:31:27;;;;;;;1.70;1.60;;;16.60;70.40;;;;;;4884466;29;20489;-76
2023/08/28 04:33:53;;;;;;;1.90;1.75;;;16.60;70.50;;;;;;4915738;29;20442;-76
2023/08/28 04:36:19;;;;;;;2.00;1.80;;;16.60;70.50;;;;;;4915810;29;20033;-76
2023/08/28 04:38:44;;;;;;;1.95;1.70;;;16.50;70.50;;;;;;4899897;29;20061;-76
2023/08/28 04:41:10;;;;;;;1.95;1.75;;;16.50;70.40;;;;;;4899770;29;20037;-76
2023/08/28 04:43:36;;;;;;;2.08;1.88;;;16.50;70.50;;;;;;4899940;29;20040;-76
2023/08/28 04:46:01;;;;;;;1.80;1.65;;;16.50;70.50;;;;;;4901118;29;20394;-76
2023/08/28 04:48:30;;;;;;;1.83;1.70;;;16.60;70.60;;;;;;4899613;29;20135;-76
2023/08/28 04:50:57;;;;;;;2.15;1.77;;;16.50;70.50;;;;;;4899314;29;20127;-76
2023/08/28 04:53:22;;;;;;;3.20;2.00;;;16.50;70.60;;;;;;4884448;29;20471;-76
2023/08/28 04:55:49;;;;;;;2.72;2.10;;;16.50;70.60;;;;;;4900342;29;20038;-76
2023/08/28 04:58:14;;;;;;;2.00;1.80;;;16.50;70.70;;;;;;4899637;29;20367;-76
2023/08/28 05:00:40;;;;;;;2.03;1.83;;;16.50;70.60;;;;;;4884251;29;20039;-76
2023/08/28 05:03:06;;;;;;;2.15;1.90;;;16.50;70.60;;;;;;4899417;29;20482;-76
2023/08/28 05:05:32;;;;;;;2.83;1.88;;;16.50;70.70;;;;;;4899088;29;20044;-77
2023/08/28 05:07:58;;;;;;;2.38;2.03;;;16.50;70.70;;;;;;4915250;29;20033;-76
2023/08/28 05:10:24;;;;;;;2.25;2.05;;;16.50;70.70;;;;;;4899327;29;20068;-77
2023/08/28 05:12:49;;;;;;;2.05;1.80;;;16.50;70.70;;;;;;4883825;29;20089;-77
2023/08/28 05:15:15;;;;;;;2.05;1.85;;;16.50;70.70;;;;;;4899527;29;20470;-76
2023/08/28 05:17:41;;;;;;;2.53;2.05;;;16.50;70.70;;;;;;4914582;29;20060;-77
2023/08/28 05:20:07;;;;;;;2.22;1.92;;;16.50;70.80;;;;;;4899302;29;20039;-76
2023/08/28 05:22:33;;;;;;;2.22;1.90;;;16.50;70.80;;;;;;4899848;29;20075;-76
2023/08/28 05:24:58;;;;;;;2.17;1.80;;;16.50;70.80;;;;;;4899163;29;20443;-77
2023/08/28 05:27:24;;;;;;;2.47;2.10;;;16.50;70.80;;;;;;4914976;29;20097;-77
2023/08/28 05:29:51;;;;;;;2.20;2.00;;;16.50;70.80;;;;;;4899020;29;20037;-76
2023/08/28 05:32:17;;;;;;;2.47;2.15;;;16.50;70.80;;;;;;4898883;29;20091;-77
2023/08/28 05:34:43;;;;;;;2.53;2.30;;;16.40;70.80;;;;;;4899588;29;20460;-76
2023/08/28 05:37:08;;;;;;;2.88;1.92;;;16.50;70.90;;;;;;4899055;29;20486;-77
2023/08/28 05:39:34;;;;;;;2.50;2.08;;;16.50;70.90;;;;;;4898961;29;20109;-76
2023/08/28 05:42:00;;;;;;;2.20;1.95;;;16.50;70.90;;;;;;4899109;29;20131;-76
2023/08/28 05:44:26;;;;;;;2.75;2.33;;;16.50;70.90;;;;;;4899489;29;20040;-77
2023/08/28 05:46:52;;;;;;;2.85;2.38;;;16.50;70.90;;;;;;4914382;29;20043;-76
2023/08/28 05:49:17;;;;;;;2.88;2.25;;;16.50;70.90;;;;;;4899373;29;20041;-76
2023/08/28 05:51:43;;;;;;;2.38;2.17;;;16.50;70.90;;;;;;4899278;29;20426;-76
2023/08/28 05:54:09;;;;;;;2.90;2.20;;;16.50;70.90;;;;;;4898821;29;20029;-76
2023/08/28 05:56:35;;;;;;;2.30;2.10;;;16.50;70.90;;;;;;4914247;29;20037;-75
2023/08/28 05:59:01;;;;;;;3.15;2.40;;;16.50;70.90;;;;;;4899687;29;20083;-76
2023/08/28 06:01:27;;;;;;;2.50;2.30;;;16.50;70.90;;;;;;4913326;29;20029;-76
2023/08/28 06:03:56;;;;;;;2.40;2.15;;;16.50;70.90;;;;;;4898039;29;20037;-76
2023/08/28 06:06:23;;;;;;;2.75;2.30;;;16.50;70.90;;;;;;4883128;29;20474;-76
2023/08/28 06:08:50;;;;;;;2.97;2.40;;;16.60;71.00;;;;;;4898437;29;20139;-76
2023/08/28 06:11:16;;;;;;;2.55;2.13;;;16.60;71.00;;;;;;4882825;29;20537;-76
2023/08/28 06:13:42;;;;;;;2.80;2.30;;;16.60;71.00;;;;;;4898014;29;20048;-76
2023/08/28 06:16:08;;;;;;;2.22;2.03;;;16.60;71.00;;;;;;4898027;29;20041;-76
2023/08/28 06:18:33;;;;;;;2.53;2.20;;;16.60;71.00;;;;;;4897917;29;20108;-76
2023/08/28 06:20:59;;;;;;;3.08;2.40;;;16.60;71.00;;;;;;4898034;29;20101;-76
2023/08/28 06:23:25;;;;;;;2.92;2.17;;;16.60;71.00;;;;;;4898757;29;20040;-75
2023/08/28 06:25:50;;;;;;;3.08;2.25;;;16.60;71.00;;;;;;4898703;29;20052;-76
2023/08/28 06:28:16;;;;;;;3.13;2.45;;;16.70;71.10;;;;;;4899689;29;20033;-76
2023/08/28 06:30:42;;;;;;;3.05;2.33;;;16.70;71.10;;;;;;4882602;29;20431;-76
2023/08/28 06:33:08;;;;;;;2.95;2.30;;;16.70;71.00;;;;;;4897851;29;20405;-76
2023/08/28 06:35:34;;;;;;;3.45;2.42;;;16.70;71.10;;;;;;4899017;29;20032;-76
2023/08/28 06:37:59;;;;;;;2.63;2.30;;;16.70;71.00;;;;;;4897857;29;20060;-76
2023/08/28 06:40:25;;;;;;;3.80;2.70;;;16.70;71.00;;;;;;4899235;29;20099;-76
2023/08/28 06:42:51;;;;;;;2.92;2.53;;;16.70;71.00;;;;;;4897403;29;20405;-76
2023/08/28 06:45:17;;;;;;;2.97;2.30;;;16.80;71.10;;;;;;4897618;29;20185;-75
2023/08/28 06:47:42;;;;;;;3.13;2.45;;;16.80;71.10;;;;;;4897424;29;20037;-75
2023/08/28 06:50:08;;;;;;;3.40;2.15;;;16.80;71.10;;;;;;4897943;29;20478;-77
2023/08/28 06:52:35;;;;;;;2.63;2.40;;;16.80;71.10;;;;;;4882090;29;20049;-76
2023/08/28 06:55:02;;;;;;;3.00;2.47;;;16.80;71.10;;;;;;4897542;29;20036;-76
2023/08/28 06:57:28;;;;;;;2.95;2.28;;;16.80;71.10;;;;;;4882631;29;20037;-76
2023/08/28 06:59:54;;;;;;;3.00;2.50;;;16.90;71.10;;;;;;4897276;29;20108;-76
2023/08/28 07:02:19;;;;;;;3.10;2.50;;;16.90;71.10;;;;;;4898402;29;20037;-76
2023/08/28 07:04:46;;;;;;;3.15;2.25;;;16.90;71.10;;;;;;4913218;29;20096;-76
2023/08/28 07:07:15;;;;;;;3.10;2.33;;;16.90;71.10;;;;;;4897388;29;20443;-76
2023/08/28 07:09:41;;;;;;;2.70;2.30;;;16.90;71.10;;;;;;4912852;29;20111;-76
2023/08/28 07:12:07;;;;;;;2.75;2.25;;;17.00;71.10;;;;;;4897109;29;20036;-76
2023/08/28 07:14:32;;;;;;;2.92;2.30;;;17.00;71.20;;;;;;4897997;29;20036;-77
2023/08/28 07:16:58;;;;;;;2.97;2.38;;;17.00;71.10;;;;;;4881384;29;20029;-76
2023/08/28 07:19:24;;;;;;;5.55;2.33;;;17.00;71.10;;;;;;4912856;29;20032;-76
2023/08/28 07:21:50;;;;;;;2.92;2.15;;;17.10;71.10;;;;;;4897529;29;20064;-76
2023/08/28 07:24:15;;;;;;;2.40;1.98;;;17.00;71.10;;;;;;4898215;29;20075;-76
2023/08/28 07:26:41;;;;;;;2.90;2.20;;;17.10;71.10;;;;;;4882337;29;20462;-76
2023/08/28 07:29:07;;;;;;;3.00;2.20;;;17.10;71.20;;;;;;4897180;29;20044;-76
2023/08/28 07:31:33;;;;;;;3.03;2.40;;;17.20;71.20;;;;;;4881718;29;20045;-76
2023/08/28 07:33:59;;;;;;;3.38;2.40;;;17.20;71.20;;;;;;4896825;29;20394;-76
2023/08/28 07:36:24;;;;;;;3.67;2.22;;;17.20;71.10;;;;;;4912666;29;20036;-76
2023/08/28 07:38:50;;;;;;;2.35;2.15;;;17.20;71.10;;;;;;4898148;29;20072;-76
2023/08/28 07:41:19;;;;;;;2.60;2.10;;;17.30;71.10;;;;;;4912897;29;20037;-76
2023/08/28 07:43:45;;;;;;;3.47;2.50;;;17.30;71.10;;;;;;4881715;29;20068;-76
2023/08/28 07:46:11;;;;;;;2.95;2.40;;;17.30;71.10;;;;;;4897486;29;20477;-76
2023/08/28 07:48:37;;;;;;;2.60;2.08;;;17.30;71.10;;;;;;4896870;29;20033;-77
2023/08/28 07:51:03;;;;;;;2.80;2.17;;;17.40;71.70;;;;;;4912873;29;20044;-78
2023/08/28 07:53:30;;;;;;;4.03;2.47;;;17.40;71.00;;;;;;4899035;29;20039;-77
2023/08/28 07:55:55;;;;;;;2.55;2.22;;;17.40;71.00;;;;;;4897100;29;20496;-76
2023/08/28 07:58:21;;;;;;;2.45;2.00;;;17.50;71.00;;;;;;4898429;29;20036;-77
2023/08/28 08:00:47;;;;;;;3.20;2.25;;;17.50;71.00;;;;;;4896736;29;20048;-76
2023/08/28 08:03:12;;;;;;;2.30;2.10;;;17.50;71.00;;;;;;4896973;29;20036;-76
2023/08/28 08:05:38;;;;;;;2.00;1.85;;;17.60;71.00;;;;;;4896872;29;20044;-77
2023/08/28 08:08:04;;;;;;;3.30;2.00;;;17.60;70.90;;;;;;4896932;29;20088;-76
2023/08/28 08:10:31;;;;;;;2.67;2.20;;;17.60;70.90;;;;;;4881675;29;20101;-76
2023/08/28 08:12:57;;;;;;;2.30;1.80;;;17.60;70.90;;;;;;4881589;29;20037;-76
2023/08/28 08:15:23;;;;;;;1.85;1.75;;;17.70;70.90;;;;;;4881056;29;20082;-76
2023/08/28 08:17:48;;;;;;;2.70;2.10;;;17.70;70.90;;;;;;4896247;29;20410;-76
2023/08/28 08:20:15;;;;;;;2.22;1.92;;;17.80;70.90;;;;;;4897084;29;20482;-76
2023/08/28 08:22:42;;;;;;;2.03;1.73;;;17.80;70.90;;;;;;4896657;29;20032;-78
2023/08/28 08:25:09;;;;;;;2.22;1.85;;;17.80;70.80;;;;;;4899193;29;20409;-76
2023/08/28 08:27:37;;;;;;;2.20;2.00;;;17.90;70.80;;;;;;4901544;29;20482;-77
2023/08/28 08:30:05;;;;;;;2.33;1.85;;;17.90;70.70;;;;;;4901370;29;20119;-76
2023/08/28 08:32:30;;;;;;;3.65;1.90;;;18.00;71.30;;;;;;4900769;29;20040;-77
2023/08/28 08:34:58;;;;;;;2.20;2.00;;;18.00;70.60;;;;;;4900526;29;20471;-76
2023/08/28 08:37:28;;;;;;;2.17;1.98;;;18.00;70.50;;;;;;4915482;29;20033;-76
2023/08/28 08:39:54;;;;;;;2.10;1.85;;;18.10;70.50;;;;;;4900881;29;20032;-76
2023/08/28 08:42:20;;;;;;;2.58;1.98;;;18.10;70.30;;;;;;4916282;29;20051;-77
2023/08/28 08:44:45;;;;;;;2.38;1.85;;;18.20;70.30;;;;;;4899854;29;20131;-76
2023/08/28 08:47:11;;;;;;;2.17;1.75;;;18.30;70.20;;;;;;4899718;29;20554;-77
2023/08/28 08:49:40;;;;;;;2.53;1.98;;;18.30;70.10;;;;;;4899587;29;20033;-76
2023/08/28 08:52:08;;;;;;;2.13;1.90;;;18.40;70.00;;;;;;4900437;29;20362;-76
2023/08/28 08:54:39;;;;;;;1.90;1.70;;;18.40;69.90;;;;;;4916094;29;20024;-77
2023/08/28 08:57:31;;;;;;;2.17;1.77;;;18.50;69.80;;;;;;4900535;29;20107;-76
2023/08/28 08:59:58;;;;;;;1.95;1.73;;;18.60;69.70;;;;;;4900321;29;20064;-76
2023/08/28 09:02:25;;;;;;;2.53;2.05;;;18.70;69.50;;;;;;4915363;29;20100;-76
2023/08/28 09:04:51;;;;;;;1.88;1.70;;;18.70;69.40;;;;;;4883781;29;20072;-77
2023/08/28 09:07:18;;;;;;;1.77;1.60;;;18.80;69.30;;;;;;4884136;29;20033;-76
2023/08/28 09:09:44;;;;;;;1.88;1.67;;;18.90;69.30;;;;;;4900238;29;20052;-76
2023/08/28 09:12:10;;;;;;;1.58;1.33;;;19.00;69.20;;;;;;4899298;29;20036;-76
2023/08/28 09:14:37;;;;;;;1.65;1.55;;;19.10;69.10;;;;;;4899277;29;20088;-76
2023/08/28 09:17:02;;;;;;;2.38;1.80;;;19.10;69.10;;;;;;4898883;29;20032;-77
2023/08/28 09:19:30;;;;;;;1.98;1.63;;;19.20;69.00;;;;;;4899557;29;20039;-77
2023/08/28 09:21:56;;;;;;;2.88;1.70;;;19.30;69.00;;;;;;4900011;29;20482;-77
2023/08/28 09:24:22;;;;;;;2.38;1.83;;;19.30;68.80;;;;;;4883541;29;20035;-76
2023/08/28 09:26:52;;;;;;;1.90;1.60;;;19.40;68.80;;;;;;4900013;29;20067;-78
2023/08/28 09:29:22;;;;;;;1.58;1.48;;;19.50;68.70;;;;;;4898838;29;20043;-76
2023/08/28 09:31:48;;;;;;;1.77;1.25;;;19.50;68.60;;;;;;4898734;29;20060;-77
2023/08/28 09:34:14;;;;;;;1.45;1.35;;;19.60;68.60;;;;;;4899959;29;20455;-76
2023/08/28 09:36:40;;;;;;;1.63;1.50;;;19.70;68.60;;;;;;4882288;29;20128;-76
2023/08/28 09:39:06;;;;;;;2.05;1.45;;;19.80;68.60;;;;;;4898900;29;20028;-76
2023/08/28 09:41:40;;;;;;;1.55;1.42;;;19.80;68.50;;;;;;4898493;29;20489;-76
2023/08/28 09:44:06;;;;;;;1.45;1.30;;;20.00;68.60;;;;;;4899096;29;20036;-76
2023/08/28 09:46:32;;;;;;;1.63;1.40;;;20.00;68.40;;;;;;4914790;29;20040;-76
2023/08/28 09:48:58;;;;;;;1.45;1.35;;;20.10;68.40;;;;;;4898670;29;20028;-76
2023/08/28 09:51:39;;;;;;;2.50;1.60;;;20.20;68.40;;;;;;4914166;29;20033;-76
2023/08/28 09:54:05;;;;;;;1.35;1.25;;;20.30;68.40;;;;;;4898774;29;20024;-76
2023/08/28 09:56:31;;;;;;;1.90;1.50;;;20.40;68.20;;;;;;4883255;29;20435;-77
2023/08/28 09:59:03;;;;;;;1.80;1.60;;;20.40;68.10;;;;;;4898480;29;20230;-76
2023/08/28 10:01:32;;;;;;;1.45;1.35;;;20.50;68.20;;;;;;4898517;29;20033;-76
2023/08/28 10:04:01;;;;;;;2.15;1.42;;;20.50;68.10;;;;;;4898457;29;20053;-76
2023/08/28 10:06:29;;;;;;;1.63;1.27;;;20.60;68.20;;;;;;4898108;29;20478;-77
2023/08/28 10:09:00;;;;;;;1.45;1.35;;;20.60;68.10;;;;;;4898241;29;20032;-76
2023/08/28 10:11:33;;;;;;;1.40;1.30;;;20.70;68.20;;;;;;4898596;29;20036;-76
2023/08/28 10:14:01;;;;;;;1.75;1.30;;;20.80;68.90;;;;;;4914830;29;20043;-76
2023/08/28 10:16:33;;;;;;;1.73;1.30;;;20.80;68.20;;;;;;4913818;29;20482;-76
2023/08/28 10:19:17;;;;;;;1.40;1.30;;;20.90;68.20;;;;;;4898119;29;20068;-76
2023/08/28 10:21:44;;;;;;;1.30;1.20;;;20.90;68.30;;;;;;4913497;29;20190;-76
2023/08/28 10:24:12;;;;;;;1.55;1.15;;;21.00;68.10;;;;;;4899955;29;20036;-76
2023/08/28 10:26:40;;;;;;;1.45;1.17;;;21.00;68.10;;;;;;4897686;29;20490;-76
2023/08/28 10:29:07;;;;;;;1.60;1.30;;;21.10;68.10;;;;;;4882880;29;20127;-76
2023/08/28 10:31:35;;;;;;;1.20;1.10;;;21.10;68.00;;;;;;4898166;29;20032;-76
2023/08/28 10:34:01;;;;;;;1.00;1.00;;;21.20;68.00;;;;;;4897604;29;20043;-76
2023/08/28 10:36:29;;;;;;;1.27;1.13;;;21.30;68.00;;;;;;4897662;29;20037;-76
2023/08/28 10:38:55;;;;;;;1.70;1.05;;;21.30;67.90;;;;;;4882371;29;20036;-76
2023/08/28 10:41:23;;;;;;;1.20;1.10;;;21.40;67.90;;;;;;4897715;29;20486;-76
2023/08/28 10:43:50;;;;;;;1.45;1.10;;;21.40;67.90;;;;;;4898541;29;20115;-76
2023/08/28 10:46:16;;;;;;;1.00;1.00;;;21.50;67.90;;;;;;4882174;29;20044;-76
2023/08/28 10:48:45;;;;;;;1.10;1.00;;;21.50;67.90;;;;;;4882147;29;20386;-76
2023/08/28 10:51:12;;;;;;;0.90;0.85;;;21.60;68.00;;;;;;4899072;29;20033;-76
2023/08/28 10:53:39;;;;;;;1.55;1.35;;;21.60;67.90;;;;;;4897814;29;20044;-76
2023/08/28 10:56:05;;;;;;;0.95;0.95;;;21.70;68.00;;;;;;4897463;29;20040;-76
2023/08/28 10:58:36;;;;;;;1.00;1.00;;;21.70;68.00;;;;;;4897472;29;20041;-76
2023/08/28 11:01:16;;;;;;;1.25;1.00;;;21.80;68.00;;;;;;4898260;29;20101;-76
2023/08/28 11:03:51;;;;;;;1.05;0.95;;;21.90;68.10;;;;;;4897460;29;20068;-77
2023/08/28 11:06:55;;;;;;;0.88;0.88;;;21.80;68.00;;;;;;4912919;29;20088;-77
2023/08/28 11:09:29;;;;;;;0.80;0.80;;;21.90;68.10;;;;;;4858941;29;20053;-77
2023/08/28 11:11:57;;;;;;;0.90;0.90;;;22.00;68.10;;;;;;4859651;29;20030;-77
2023/08/28 11:14:30;;;;;;;1.00;0.75;;;22.00;68.10;;;;;;4880443;29;20043;-77
2023/08/28 11:17:09;;;;;;;0.93;0.90;;;22.00;68.20;;;;;;4898714;29;20410;-77
2023/08/28 11:20:07;;;;;;;0.75;0.75;;;22.10;68.40;;;;;;4898577;29;20048;-76
2023/08/28 11:22:41;;;;;;;0.70;0.70;;;22.10;68.50;;;;;;4881906;29;20040;-76
2023/08/28 11:25:14;;;;;;;0.70;0.70;;;22.20;68.50;;;;;;4897075;29;20474;-76
2023/08/28 11:27:48;;;;;;;0.90;0.90;;;22.20;68.60;;;;;;4912924;29;20033;-77
2023/08/28 11:30:16;;;;;;;1.80;1.20;;;22.20;68.60;;;;;;4882115;29;20462;-76
2023/08/28 11:32:44;;;;;;;0.80;0.80;;;22.30;68.70;;;;;;4897017;29;20096;-76
2023/08/28 11:35:16;;;;;;;1.05;0.80;;;22.30;68.90;;;;;;4912748;29;20037;-76
2023/08/28 11:37:47;;;;;;;0.80;0.80;;;22.30;68.90;;;;;;4897437;29;20373;-76
2023/08/28 11:40:18;;;;;;;0.85;0.85;;;22.40;69.00;;;;;;4897564;29;20032;-77
2023/08/28 11:42:46;;;;;;;1.10;1.00;;;22.40;69.10;;;;;;4898821;29;20084;-77
2023/08/28 11:45:24;;;;;;;1.00;0.93;;;22.40;69.10;;;;;;4897949;29;20037;-77
2023/08/28 11:47:50;;;;;;;0.90;0.90;;;22.50;69.10;;;;;;4898629;29;20037;-77
2023/08/28 11:50:19;;;;;;;1.55;1.20;;;22.50;69.00;;;;;;4897304;29;20056;-77
2023/08/28 11:52:49;;;;;;;0.73;0.73;;;22.60;68.90;;;;;;4898011;29;20042;-76
2023/08/28 11:55:14;;;;;;;1.20;1.10;;;22.60;68.70;;;;;;4912981;29;20041;-76
2023/08/28 11:57:42;;;;;;;1.58;1.20;;;22.70;68.60;;;;;;4912532;29;20037;-77
2023/08/28 12:00:11;;;;;;;1.73;0.95;;;22.70;68.60;;;;;;4898208;29;20040;-77
2023/08/28 12:02:41;;;;;;;1.00;0.90;;;22.70;68.60;;;;;;4900904;29;20045;-76
2023/08/28 12:05:08;;;;;;;0.80;0.80;;;22.70;68.70;;;;;;4900211;29;20184;-78
2023/08/28 12:07:33;;;;;;;0.98;0.93;;;22.70;68.70;;;;;;4884841;29;20035;-76
2023/08/28 12:09:59;;;;;;;0.70;0.70;;;22.80;68.70;;;;;;4916154;29;20040;-77
2023/08/28 12:12:26;;;;;;;0.85;0.80;;;22.80;68.70;;;;;;4901013;29;20035;-77
2023/08/28 12:14:53;;;;;;;0.65;0.65;;;22.80;68.60;;;;;;4901821;29;20037;-77
2023/08/28 12:17:22;;;;;;;1.00;0.90;;;22.80;68.50;;;;;;4900355;29;20112;-76
2023/08/28 12:19:52;;;;;;;0.82;0.82;;;22.90;68.40;;;;;;4885717;29;20044;-76
2023/08/28 12:22:21;;;;;;;0.80;0.80;;;22.90;68.40;;;;;;4900903;29;20072;-77
2023/08/28 12:24:49;;;;;;;0.70;0.70;;;22.90;68.40;;;;;;4884818;29;20447;-77
2023/08/28 12:27:16;;;;;;;0.80;0.80;;;22.90;68.30;;;;;;4900121;29;20029;-77
2023/08/28 12:29:43;;;;;;;0.77;0.77;;;23.00;68.30;;;;;;4900348;29;20039;-77
2023/08/28 12:32:19;;;;;;;1.15;0.80;;;23.00;68.20;;;;;;4900008;29;20052;-77
2023/08/28 12:34:46;;;;;;;1.08;0.73;;;23.00;68.30;;;;;;4901046;29;20479;-78
2023/08/28 12:37:13;;;;;;;0.60;0.60;;;23.00;68.20;;;;;;4899881;29;20068;-77
2023/08/28 12:39:50;;;;;;;0.75;0.75;;;23.00;68.10;;;;;;4884472;29;20062;-77
2023/08/28 12:42:21;;;;;;;0.70;0.70;;;23.00;68.30;;;;;;4901336;29;20029;-77
2023/08/28 12:44:47;;;;;;;0.80;0.80;;;23.10;68.20;;;;;;4900832;29;20033;-76
2023/08/28 12:47:17;;;;;;;0.70;0.70;;;23.10;68.20;;;;;;4899984;29;20081;-77
2023/08/28 12:49:43;;;;;;;0.60;0.60;;;23.10;68.30;;;;;;4899942;29;20029;-76
2023/08/28 12:52:10;;;;;;;0.68;0.68;;;23.10;68.20;;;;;;4900244;29;20051;-77